METAR AND TAF INFORMATION
METAR FOR LDSP
ADDS - METARS form results

(0513 UTC 20 May 2022)
Data provider http://aviationweather.gov/metar/data/
 
METAR text: LDSP 200500Z VRB02KT CAVOK 17/09 Q1026 NOSIG
Conditions at: LDSP (SPLIT/KASTEL STA, HR) observed 0500 UTC 20 May 2022
Temperature: 17.0°C (63°F)
Dewpoint: 9.0°C (48°F) [RH = 59%]
Pressure (altimeter): 30.30 inches Hg (1026.0 mb)
Winds: variable direction winds at 2 MPH (2 knots; 1.0 m/s)
Visibility: 6 or more miles (10+ km)
Ceiling: ceiling and visibility are OK
Clouds: unknown
Weather: no significant weather observed at this time

METAR text: LDSP 200430Z VRB02KT CAVOK 14/08 Q1026 NOSIG
Conditions at: LDSP (SPLIT/KASTEL STA, HR) observed 0430 UTC 20 May 2022
Temperature: 14.0°C (57°F)
Dewpoint: 8.0°C (46°F) [RH = 67%]
Pressure (altimeter): 30.30 inches Hg (1026.0 mb)
Winds: variable direction winds at 2 MPH (2 knots; 1.0 m/s)
Visibility: 6 or more miles (10+ km)
Ceiling: ceiling and visibility are OK
Clouds: unknown
Weather: no significant weather observed at this time

Forecast for: LDSP (SPLIT/KASTEL STA, HR)
Text: TAF LDSP 192325Z 2000/2100 34005KT CAVOK TX27/2014Z TN12/2003Z
Forecast period: 0000 to 0900 UTC 20 May 2022
Forecast type: FROM: standard forecast or significant change
Winds: from the NNW (340 degrees) at 6 MPH (5 knots; 2.6 m/s)
Visibility: 6 or more miles (10+ km)
Ceiling: unknown
Clouds: missing
Weather: no significant weather forecast for this period
Text: BECMG 2009/2011 23012KT
Forecast period: 0900 to 1500 UTC 20 May 2022
Forecast type: BECOMING: Conditions expected to become as follows by 1100 UTC 20 May 2022
Winds: from the SW (230 degrees) at 14 MPH (12 knots; 6.2 m/s)
Visibility: 6 or more miles (10+ km)
Ceiling: unknown
Clouds: missing
Weather: no significant weather forecast for this period
Text: BECMG 2015/2017 32007KT
Forecast period: 1500 UTC 20 May 2022 to 0000 UTC 21 May 2022
Forecast type: BECOMING: Conditions expected to become as follows by 1700 UTC 20 May 2022
Winds: from the NW (320 degrees) at 8 MPH (7 knots; 3.6 m/s)
Visibility: 6 or more miles (10+ km)
Ceiling: unknown
Clouds: missing
Weather: no significant weather forecast for this period

 AIRPORT MAP

 RUNWAY INFORMATION
Runway 05 Runway length 8366 ft Runway width 148 ft
Runway elevation 70 ft Runway displaced threshold 0 ft Runway heading 53
Runway 23 Runway length 8366 ft Runway width 148 ft
Runway elevation 50 ft Runway displaced threshold 525 ft Runway heading 233

 AIRPORT FREQUENCIES
Type APP Name APP Frequency 120.875 MHZ
Type INFO Name INFO Frequency 128.675 MHZ
Type TWR Name TWR Frequency 124.675 MHZ

 AIRPORT NEAR NAVIGATION AIDS
Type NDB Name Drvenik Frequency 418 KHZ
Type VOR-DME Name Split Frequency 115700 KHZ
Type NDB Name Trogir Frequency 378 KHZ